Time;durP1;ratioP1;P1;durP2;ratioP2;P2;SDS_P1;SDS_P2;PMS_P1;PMS_P2;Temp;Humidity;BMP_temperature;BMP_pressure;BME280_temperature;BME280_humidity;BME280_pressure;Samples;Min_cycle;Max_cycle;Signal;HPM_P1;HPM_P2
2022/10/30 00:06:39;;;;;;;13.15;8.18;;;;;;;16.55;100.00;101594.19;2615515;36;20034;-56
2022/10/30 00:14:15;;;;;;;14.95;7.68;;;;;;;16.53;100.00;101585.31;2621287;31;20058;-55
2022/10/30 00:22:26;;;;;;;19.60;7.55;;;;;;;16.26;100.00;101594.44;2614392;36;20085;-56
2022/10/30 00:27:37;;;;;;;13.32;8.25;;;;;;;16.24;100.00;101588.31;2616165;36;20035;-53
2022/10/30 00:32:58;;;;;;;19.73;7.75;;;;;;;16.15;100.00;101600.09;2619093;36;20076;-56
2022/10/30 00:35:28;;;;;;;16.60;7.93;;;;;;;16.18;100.00;101587.06;2616132;36;20038;-57
2022/10/30 00:37:58;;;;;;;14.13;6.90;;;;;;;16.16;100.00;101589.06;2615311;36;20069;-56
2022/10/30 00:40:27;;;;;;;13.95;7.40;;;;;;;16.17;100.00;101589.94;2620141;36;20288;-54
2022/10/30 00:45:36;;;;;;;14.82;8.40;;;;;;;16.09;100.00;101574.38;2633325;36;20574;-56
2022/10/30 00:48:06;;;;;;;21.48;8.20;;;;;;;16.18;100.00;101575.31;2614986;36;20447;-55
2022/10/30 00:53:26;;;;;;;16.65;8.57;;;;;;;16.20;100.00;101584.19;2615190;54;20504;-55
2022/10/30 00:55:58;;;;;;;18.00;8.27;;;;;;;16.20;100.00;101585.03;2616410;36;20432;-54
2022/10/30 00:58:31;;;;;;;14.40;7.18;;;;;;;16.13;100.00;101592.09;2616198;36;20053;-57
2022/10/30 01:01:02;;;;;;;17.98;8.02;;;;;;;16.14;100.00;101584.81;2614339;54;20034;-56
2022/10/30 01:06:04;;;;;;;16.50;7.95;;;;;;;15.97;100.00;101573.75;2616551;46;21038;-58
2022/10/30 01:08:35;;;;;;;16.67;7.80;;;;;;;16.02;100.00;101565.16;2616347;36;20038;-54
2022/10/30 01:11:05;;;;;;;15.93;7.80;;;;;;;16.04;100.00;101574.84;2615094;36;20031;-57
2022/10/30 01:13:36;;;;;;;14.75;7.38;;;;;;;16.05;100.00;101586.59;2616772;31;20039;-55
2022/10/30 01:16:21;;;;;;;13.35;7.28;;;;;;;16.03;100.00;101586.75;2615779;36;20026;-54
2022/10/30 01:19:00;;;;;;;21.05;8.10;;;;;;;15.92;100.00;101597.81;2615870;36;20031;-54
2022/10/30 01:21:37;;;;;;;;;;;;;;;15.89;100.00;101603.56;2615847;36;20038;-55
2022/10/30 01:24:33;;;;;;;13.25;8.82;;;;;;;15.90;100.00;101606.13;2616188;36;20028;-53
2022/10/30 01:27:15;;;;;;;14.30;7.40;;;;;;;15.94;100.00;101595.81;2615709;36;20093;-52
2022/10/30 01:29:57;;;;;;;17.42;7.40;;;;;;;15.91;100.00;101601.53;2616597;36;20030;-53
2022/10/30 01:32:55;;;;;;;16.83;8.25;;;;;;;15.81;100.00;101596.19;2616365;36;20057;-53
2022/10/30 01:35:29;;;;;;;17.35;8.77;;;;;;;15.73;100.00;101593.34;2615703;36;20038;-56
2022/10/30 01:40:48;;;;;;;16.52;8.18;;;;;;;15.62;100.00;101599.84;2613818;36;20035;-56
2022/10/30 01:43:17;;;;;;;15.55;8.65;;;;;;;15.56;100.00;101597.69;2615228;36;20035;-53
2022/10/30 01:48:49;;;;;;;14.00;7.72;;;;;;;15.56;100.00;101605.84;2613572;36;20038;-54
2022/10/30 01:51:25;;;;;;;16.63;8.23;;;;;;;15.59;100.00;101608.25;2615949;36;20053;-57
2022/10/30 01:56:47;;;;;;;17.00;7.70;;;;;;;15.58;100.00;101612.00;2613616;54;20027;-56
2022/10/30 02:04:17;;;;;;;15.55;7.93;;;;;;;15.57;100.00;101623.84;2615162;36;20043;-54
2022/10/30 02:06:46;;;;;;;17.13;9.25;;;;;;;15.60;100.00;101620.81;2618159;36;20033;-55
2022/10/30 02:09:16;;;;;;;15.50;8.20;;;;;;;15.56;100.00;101622.13;2615700;36;20428;-57
2022/10/30 02:11:49;;;;;;;16.90;8.57;;;;;;;15.51;100.00;101619.03;2615115;54;20046;-53
2022/10/30 02:14:24;;;;;;;16.73;8.15;;;;;;;15.41;100.00;101617.22;2615849;36;20423;-55
2022/10/30 02:19:33;;;;;;;;;;;;;;;15.36;100.00;101621.38;2613784;54;20049;-55
2022/10/30 02:24:57;;;;;;;16.92;9.05;;;;;;;15.34;100.00;101636.94;2614297;39;20427;-52
2022/10/30 02:27:26;;;;;;;17.35;8.93;;;;;;;15.26;100.00;101634.13;2615772;36;20027;-55
2022/10/30 02:29:54;;;;;;;15.68;8.23;;;;;;;15.29;100.00;101623.81;2615647;36;20042;-55
2022/10/30 02:35:00;;;;;;;16.27;9.23;;;;;;;15.24;100.00;101620.72;2617160;36;20110;-55
2022/10/30 02:37:41;;;;;;;16.50;8.60;;;;;;;15.18;100.00;101626.69;2616061;54;20042;-55
2022/10/30 02:40:13;;;;;;;16.98;8.75;;;;;;;15.18;100.00;101623.97;2615699;36;20121;-55
2022/10/30 02:42:41;;;;;;;22.20;8.93;;;;;;;15.15;100.00;101625.16;2616975;36;20030;-49
2022/10/30 02:45:11;;;;;;;13.13;8.00;;;;;;;15.17;100.00;101633.16;2615386;36;20030;-54
2022/10/30 02:50:11;;;;;;;15.48;7.88;;;;;;;14.98;100.00;101626.75;2613333;54;20039;-55
2022/10/30 02:58:02;;;;;;;17.52;9.00;;;;;;;15.07;100.00;101625.03;2614851;39;20720;-56
2022/10/30 03:00:31;;;;;;;14.80;8.77;;;;;;;15.03;100.00;101626.31;2616713;36;20038;-53
2022/10/30 03:05:29;;;;;;;19.10;10.40;;;;;;;15.04;100.00;101631.59;2614394;54;20034;-55
2022/10/30 03:28:57;;;;;;;17.55;8.50;;;;;;;14.65;100.00;101637.09;2613470;54;20117;-56
2022/10/30 03:36:30;;;;;;;21.38;9.50;;;;;;;14.55;100.00;101638.91;2617257;36;20034;-54
2022/10/30 03:38:59;;;;;;;19.67;9.10;;;;;;;14.58;100.00;101641.34;2621751;36;20131;-56
2022/10/30 03:41:27;;;;;;;13.97;8.30;;;;;;;14.64;100.00;101648.06;2616841;36;20041;-55
2022/10/30 03:43:58;;;;;;;21.40;9.33;;;;;;;14.70;100.00;101656.47;2615627;36;20027;-56
2022/10/30 03:46:30;;;;;;;17.83;9.40;;;;;;;14.67;100.00;101650.50;2615205;31;20031;-54
2022/10/30 03:48:58;;;;;;;15.93;9.38;;;;;;;14.65;100.00;101641.63;2617259;31;20162;-55
2022/10/30 03:51:26;;;;;;;17.73;9.40;;;;;;;14.59;100.00;101656.59;2615804;36;20605;-57
2022/10/30 03:53:55;;;;;;;20.50;9.48;;;;;;;14.51;100.00;101653.72;2616109;31;20311;-54
2022/10/30 03:56:23;;;;;;;18.35;8.55;;;;;;;14.54;100.00;101646.16;2614330;36;20038;-54
2022/10/30 03:58:51;;;;;;;17.70;8.50;;;;;;;14.49;100.00;101653.88;2616143;36;20038;-55
2022/10/30 04:01:22;;;;;;;22.03;9.67;;;;;;;14.39;100.00;101657.59;2616944;31;20049;-54
2022/10/30 04:03:51;;;;;;;20.60;9.45;;;;;;;14.45;100.00;101654.31;2616875;36;20067;-54
2022/10/30 04:11:31;;;;;;;21.48;8.93;;;;;;;14.33;100.00;101659.84;2615211;36;20565;-55
2022/10/30 04:13:59;;;;;;;19.10;9.23;;;;;;;14.30;100.00;101653.88;2616401;36;20034;-57
2022/10/30 04:21:26;;;;;;;15.20;8.95;;;;;;;14.13;100.00;101658.13;2609428;54;20046;-54
2022/10/30 04:28:50;;;;;;;22.58;9.73;;;;;;;14.07;100.00;101653.28;2609178;36;20035;-54
2022/10/30 04:31:19;;;;;;;20.90;9.50;;;;;;;14.09;100.00;101651.25;2610183;36;20042;-56
2022/10/30 04:33:48;;;;;;;19.75;10.45;;;;;;;14.02;100.00;101645.56;2609539;36;20023;-54
2022/10/30 04:36:16;;;;;;;20.27;8.97;;;;;;;14.07;100.00;101653.28;2607668;36;20041;-55
2022/10/30 04:43:43;;;;;;;20.65;11.93;;;;;;;13.94;100.00;101632.75;2611806;39;20624;-56
2022/10/30 05:01:44;;;;;;;20.02;9.57;;;;;;;14.01;100.00;101639.28;2610268;36;20063;-56
2022/10/30 05:04:12;;;;;;;18.63;9.77;;;;;;;13.97;100.00;101637.88;2609160;36;20041;-56
2022/10/30 05:14:09;;;;;;;18.80;9.32;;;;;;;13.80;100.00;101652.91;2609148;36;20504;-54
2022/10/30 05:16:37;;;;;;;19.15;9.30;;;;;;;13.85;100.00;101655.19;2607011;31;20042;-55
2022/10/30 05:26:48;;;;;;;19.60;9.35;;;;;;;13.83;100.00;101654.50;2607265;31;20057;-53
2022/10/30 05:29:17;;;;;;;17.52;9.30;;;;;;;13.79;100.00;101655.75;2609683;36;20136;-55
2022/10/30 05:31:45;;;;;;;18.20;8.70;;;;;;;13.72;100.00;101660.88;2606210;36;20034;-53
2022/10/30 05:57:18;;;;;;;19.25;10.30;;;;;;;13.37;100.00;101654.03;2609293;54;20049;-55
2022/10/30 05:59:47;;;;;;;16.48;8.98;;;;;;;13.37;100.00;101655.88;2607066;31;20034;-55
2022/10/30 06:25:39;;;;;;;21.27;10.40;;;;;;;13.39;100.00;101645.78;2607138;36;20089;-53
2022/10/30 06:28:08;;;;;;;18.92;9.50;;;;;;;13.40;100.00;101647.50;2611404;36;20029;-52
2022/10/30 06:45:50;;;;;;;16.92;8.85;;;;;;;13.24;100.00;101659.63;2612183;36;20535;-57
2022/10/30 06:48:18;;;;;;;24.10;10.52;;;;;;;13.30;100.00;101656.38;2617916;36;20725;-52
2022/10/30 06:50:56;;;;;;;20.10;9.53;;;;;;;13.32;100.00;101653.53;2613598;36;20066;-55
2022/10/30 06:53:32;;;;;;;19.63;9.82;;;;;;;13.37;100.00;101658.56;2612308;46;20061;-54
2022/10/30 06:56:02;;;;;;;17.02;9.57;;;;;;;13.31;100.00;101643.75;2611019;36;20057;-54
2022/10/30 06:58:37;;;;;;;21.65;10.07;;;;;;;13.38;100.00;101652.19;2611408;36;20061;-56
2022/10/30 07:08:49;;;;;;;22.58;10.60;;;;;;;13.62;100.00;101654.56;2612489;36;20034;-53
2022/10/30 07:11:18;;;;;;;17.20;10.20;;;;;;;13.58;100.00;101670.19;2610685;36;20035;-55
2022/10/30 07:21:17;;;;;;;22.23;10.32;;;;;;;13.72;100.00;101660.00;2610913;36;20073;-57
2022/10/30 07:23:48;;;;;;;20.90;10.47;;;;;;;13.76;100.00;101661.44;2610041;36;20550;-53
2022/10/30 07:42:13;;;;;;;22.73;10.95;;;;;;;14.25;100.00;101665.13;2612905;36;20432;-57
2022/10/30 07:44:41;;;;;;;22.40;11.25;;;;;;;14.34;100.00;101667.00;2615613;36;20045;-56
2022/10/30 07:54:47;;;;;;;25.20;10.57;;;;;;;14.49;100.00;101666.59;2609076;36;20962;-56
2022/10/30 07:57:19;;;;;;;23.33;11.37;;;;;;;14.71;100.00;101663.59;2604995;36;20046;-53
2022/10/30 08:00:07;;;;;;;20.25;11.82;;;;;;;14.74;100.00;101662.47;2617434;36;20537;-55
2022/10/30 08:17:46;;;;;;;19.45;11.43;;;;;;;15.36;100.00;101645.78;2611434;54;20121;-55
2022/10/30 08:35:37;;;;;;;19.17;10.50;;;;;;;16.07;100.00;101661.44;2607005;54;20070;-56
2022/10/30 08:53:20;;;;;;;15.40;9.38;;;;;;;16.91;100.00;101643.06;2611666;54;20038;-56
2022/10/30 09:03:20;;;;;;;18.02;9.38;;;;;;;17.31;100.00;101636.19;2613399;54;20042;-51
2022/10/30 09:05:50;;;;;;;17.05;9.82;;;;;;;17.45;100.00;101637.44;2616718;31;20633;-52
2022/10/30 09:08:21;;;;;;;15.32;8.68;;;;;;;17.54;100.00;101638.34;2616088;31;20049;-56
2022/10/30 09:10:50;;;;;;;17.38;8.88;;;;;;;17.54;100.00;101637.50;2616645;36;20041;-52
2022/10/30 09:18:33;;;;;;;15.25;9.60;;;;;;;17.99;100.00;101637.19;2612713;54;20054;-55
2022/10/30 09:36:03;;;;;;;15.93;8.50;;;;;;;18.59;100.00;101621.59;2613477;54;20043;-51
2022/10/30 09:38:32;;;;;;;26.63;9.32;;;;;;;18.51;100.00;101617.00;2615224;31;20152;-55
2022/10/30 09:41:27;;;;;;;16.97;8.47;;;;;;;18.46;100.00;101621.25;2615145;36;20111;-55
2022/10/30 09:44:09;;;;;;;23.10;8.63;;;;;;;18.50;100.00;101625.34;2615473;36;20279;-53
2022/10/30 09:46:57;;;;;;;21.60;9.30;;;;;;;18.68;100.00;101619.72;2615767;31;20023;-58
2022/10/30 09:52:28;;;;;;;20.50;8.70;;;;;;;18.93;100.00;101633.38;2614282;36;20494;-56
2022/10/30 09:55:26;;;;;;;13.93;7.85;;;;;;;18.96;100.00;101636.59;2614805;36;20030;-53
2022/10/30 09:58:04;;;;;;;24.92;8.93;;;;;;;19.11;100.00;101642.22;2616197;36;20022;-57
2022/10/30 10:00:38;;;;;;;17.88;7.90;;;;;;;19.15;100.00;101649.00;2615450;36;20039;-52
2022/10/30 10:03:24;;;;;;;22.02;8.45;;;;;;;19.22;100.00;101652.75;2615336;31;20030;-56
2022/10/30 10:19:02;;;;;;;14.32;8.32;;;;;;;19.65;100.00;101649.72;2610831;54;20033;-57
2022/10/30 10:21:31;;;;;;;18.92;8.93;;;;;;;19.69;100.00;101644.75;2612397;31;20474;-55
2022/10/30 10:24:02;;;;;;;17.40;9.55;;;;;;;19.92;100.00;101642.97;2613591;36;20069;-56
2022/10/30 10:26:33;;;;;;;12.88;7.55;;;;;;;19.89;100.00;101646.06;2615135;36;20031;-56
2022/10/30 10:29:19;;;;;;;15.30;9.18;;;;;;;19.68;100.00;101637.59;2615010;36;20035;-58
2022/10/30 10:31:57;;;;;;;17.08;8.80;;;;;;;19.58;100.00;101637.78;2614362;31;20551;-54
2022/10/30 10:34:42;;;;;;;15.43;8.15;;;;;;;19.70;100.00;101635.53;2615647;31;20061;-55
2022/10/30 10:37:20;;;;;;;17.65;8.85;;;;;;;19.97;100.00;101636.13;2613771;36;20034;-53
2022/10/30 10:40:04;;;;;;;14.07;8.55;;;;;;;20.04;100.00;101629.75;2612359;36;20030;-55
2022/10/30 10:42:42;;;;;;;15.38;8.52;;;;;;;20.19;100.00;101640.75;2612823;36;20045;-55
2022/10/30 10:45:27;;;;;;;11.82;7.97;;;;;;;20.15;100.00;101639.41;2614128;31;20560;-56
2022/10/30 10:48:22;;;;;;;18.98;8.93;;;;;;;20.01;100.00;101634.72;2610591;36;20069;-56
2022/10/30 10:50:59;;;;;;;15.52;8.57;;;;;;;19.80;100.00;101644.38;2615142;36;20053;-56
2022/10/30 10:53:36;;;;;;;18.48;9.10;;;;;;;20.00;100.00;101641.22;2617456;31;20035;-56
2022/10/30 11:03:51;;;;;;;19.65;8.82;;;;;;;20.23;100.00;101630.31;2614952;36;20034;-56
2022/10/30 11:06:29;;;;;;;14.75;8.38;;;;;;;20.26;100.00;101630.81;2615720;36;20093;-53
2022/10/30 11:16:41;;;;;;;17.90;9.75;;;;;;;20.19;100.00;101627.09;2616346;36;20173;-57
2022/10/30 11:19:10;;;;;;;13.98;8.65;;;;;;;20.63;100.00;101618.22;2620682;36;20425;-57
2022/10/30 11:21:48;;;;;;;16.98;8.48;;;;;;;20.69;100.00;101618.56;2615839;31;20034;-56
2022/10/30 11:32:02;;;;;;;;;;;;;;;20.98;100.00;101610.41;2613811;54;20043;-56
2022/10/30 11:34:35;;;;;;;20.70;9.00;;;;;;;21.15;100.00;101602.00;2615675;36;19943;-55
2022/10/30 11:37:07;;;;;;;23.02;8.95;;;;;;;21.26;100.00;101593.34;2615761;31;20046;-58
2022/10/30 11:39:36;;;;;;;18.30;8.43;;;;;;;20.81;100.00;101590.53;2615837;36;20042;-56
2022/10/30 11:42:13;;;;;;;12.55;7.80;;;;;;;21.18;100.00;101577.84;2614654;36;20041;-57
2022/10/30 11:44:45;;;;;;;16.75;8.75;;;;;;;20.95;100.00;101579.81;2616233;36;20053;-54
2022/10/30 11:47:16;;;;;;;14.82;8.27;;;;;;;21.25;100.00;101579.84;2612301;36;20038;-57
2022/10/30 11:49:48;;;;;;;18.05;8.18;;;;;;;21.22;100.00;101580.22;2614565;36;20057;-55
2022/10/30 11:52:22;;;;;;;20.15;8.50;;;;;;;21.25;100.00;101575.19;2615049;36;20034;-57
2022/10/30 11:54:54;;;;;;;18.08;7.75;;;;;;;21.13;100.00;101582.19;2614616;36;20037;-57
2022/10/30 11:57:26;;;;;;;20.15;8.80;;;;;;;21.26;100.00;101582.38;2614429;36;20030;-54
2022/10/30 11:59:57;;;;;;;19.35;8.32;;;;;;;21.04;100.00;101581.44;2614556;36;20546;-54
2022/10/30 12:02:28;;;;;;;15.35;9.07;;;;;;;20.78;100.00;101587.34;2613975;36;20420;-58
2022/10/30 12:28:08;;;;;;;14.20;8.90;;;;;;;20.96;100.00;101573.31;2614075;54;19946;-58
2022/10/30 12:30:40;;;;;;;15.48;8.90;;;;;;;20.82;100.00;101573.09;2614921;36;20030;-57
2022/10/30 12:40:48;;;;;;;16.55;9.10;;;;;;;21.07;100.00;101569.25;2612624;54;20038;-56
2022/10/30 12:50:45;;;;;;;15.45;8.93;;;;;;;21.48;100.00;101558.66;2612784;54;20026;-56
2022/10/30 13:08:26;;;;;;;17.48;8.02;;;;;;;21.55;100.00;101557.91;2613075;36;20121;-53
2022/10/30 13:10:58;;;;;;;16.67;8.48;;;;;;;21.21;100.00;101562.94;2614403;36;20057;-54
2022/10/30 13:21:00;;;;;;;16.65;8.50;;;;;;;21.40;100.00;101541.50;2613167;36;19947;-55
2022/10/30 13:23:39;;;;;;;19.80;8.10;;;;;;;21.53;100.00;101536.19;2618498;36;20041;-53
2022/10/30 13:26:15;;;;;;;19.42;9.15;;;;;;;21.62;100.00;101534.19;2615651;36;20038;-53
2022/10/30 13:28:48;;;;;;;16.63;7.63;;;;;;;21.69;100.00;101533.22;2614143;36;20411;-50
2022/10/30 13:31:25;;;;;;;16.80;8.73;;;;;;;21.50;100.00;101522.88;2615357;36;20030;-53
2022/10/30 13:34:02;;;;;;;15.75;7.93;;;;;;;21.59;100.00;101538.16;2613498;36;20026;-56
2022/10/30 13:36:38;;;;;;;18.23;8.65;;;;;;;21.38;100.00;101527.13;2615064;36;20023;-54
2022/10/30 13:39:23;;;;;;;19.15;9.02;;;;;;;21.38;100.00;101529.84;2616225;36;20551;-56
2022/10/30 13:42:20;;;;;;;18.35;8.30;;;;;;;21.50;100.00;101517.38;2614263;54;20031;-56
2022/10/30 13:45:03;;;;;;;16.35;8.45;;;;;;;21.38;100.00;101522.50;2615319;36;20030;-55
2022/10/30 13:47:42;;;;;;;17.85;7.90;;;;;;;21.43;100.00;101516.44;2615167;36;20034;-56
2022/10/30 13:52:59;;;;;;;16.08;7.70;;;;;;;21.25;100.00;101531.41;2618562;36;20506;-54
2022/10/30 13:55:32;;;;;;;11.10;7.25;;;;;;;21.21;100.00;101532.81;2614766;36;20058;-55
2022/10/30 13:58:09;;;;;;;14.38;6.82;;;;;;;21.13;100.00;101532.94;2616515;36;20430;-56
2022/10/30 14:00:55;;;;;;;13.10;7.68;;;;;;;21.33;100.00;101536.78;2613576;36;20022;-57
2022/10/30 14:03:32;;;;;;;16.58;7.50;;;;;;;21.20;100.00;101536.59;2612976;31;20030;-55
2022/10/30 14:06:11;;;;;;;16.50;8.13;;;;;;;21.09;100.00;101542.56;2614348;36;20037;-55
2022/10/30 14:08:46;;;;;;;13.90;7.43;;;;;;;21.00;100.00;101533.59;2613223;36;20073;-57
2022/10/30 14:11:17;;;;;;;14.23;7.28;;;;;;;21.08;100.00;101532.63;2615201;36;20543;-57
2022/10/30 14:13:55;;;;;;;16.80;8.30;;;;;;;21.03;100.00;101540.56;2613481;36;20039;-57
2022/10/30 14:16:41;;;;;;;17.00;7.63;;;;;;;20.82;100.00;101539.44;2613819;36;20227;-57
2022/10/30 14:19:11;;;;;;;19.55;8.73;;;;;;;20.65;100.00;101544.19;2613246;36;20038;-58
2022/10/30 14:21:46;;;;;;;17.42;8.65;;;;;;;20.62;100.00;101548.13;2615839;36;20057;-57
2022/10/30 14:24:17;;;;;;;16.58;8.35;;;;;;;20.51;100.00;101539.53;2614555;36;20029;-57
2022/10/30 14:26:55;;;;;;;13.85;8.18;;;;;;;20.55;100.00;101541.69;2615765;36;20023;-57
2022/10/30 14:29:48;;;;;;;19.27;9.95;;;;;;;20.40;100.00;101541.66;2613153;36;20561;-58
2022/10/30 14:32:36;;;;;;;14.63;9.20;;;;;;;20.19;100.00;101561.50;2614506;31;20561;-57
2022/10/30 14:35:35;;;;;;;20.42;9.27;;;;;;;20.18;100.00;101551.59;2614491;36;20042;-57
2022/10/30 14:38:26;;;;;;;17.83;8.63;;;;;;;20.34;100.00;101547.88;2615396;36;20069;-57
2022/10/30 14:41:10;;;;;;;16.13;9.30;;;;;;;20.28;100.00;101544.00;2615222;31;20129;-58
2022/10/30 14:43:48;;;;;;;22.55;11.00;;;;;;;20.11;100.00;101548.75;2614666;36;20299;-58
2022/10/30 14:46:26;;;;;;;17.10;10.00;;;;;;;20.09;100.00;101552.69;2614977;36;20029;-62
2022/10/30 14:49:05;;;;;;;16.88;9.13;;;;;;;20.19;100.00;101545.09;2616025;31;20101;-60
2022/10/30 14:51:43;;;;;;;18.65;10.27;;;;;;;20.25;100.00;101551.72;2615212;36;20045;-60
2022/10/30 14:54:19;;;;;;;18.33;9.70;;;;;;;20.18;100.00;101545.28;2616438;31;20034;-59
2022/10/30 14:56:49;;;;;;;24.00;9.45;;;;;;;20.21;100.00;101540.28;2612842;36;20023;-61
2022/10/30 14:59:25;;;;;;;19.70;9.93;;;;;;;20.15;100.00;101527.34;2613546;54;20042;-61
2022/10/30 15:02:01;;;;;;;25.45;9.82;;;;;;;20.01;100.00;101539.06;2615939;36;20026;-59
2022/10/30 15:07:07;;;;;;;16.92;9.18;;;;;;;20.06;100.00;101542.13;2616100;39;20472;-60
2022/10/30 15:09:46;;;;;;;18.63;9.80;;;;;;;19.94;100.00;101545.28;2617010;36;20022;-58
2022/10/30 15:12:53;;;;;;;23.45;10.93;;;;;;;19.92;100.00;101541.00;2617146;36;20027;-60
2022/10/30 15:15:21;;;;;;;18.95;9.70;;;;;;;19.90;100.00;101543.94;2614352;54;20038;-58
2022/10/30 15:17:52;;;;;;;18.17;10.48;;;;;;;19.78;100.00;101568.09;2615976;36;20043;-59
2022/10/30 15:23:05;;;;;;;18.88;10.93;;;;;;;19.91;100.00;101559.31;2612637;36;20041;-59
2022/10/30 15:25:37;;;;;;;20.95;10.07;;;;;;;19.79;100.00;101574.41;2614972;36;20026;-58
2022/10/30 15:28:06;;;;;;;17.90;9.13;;;;;;;19.84;100.00;101571.13;2614788;36;20560;-64
2022/10/30 15:30:34;;;;;;;20.50;10.35;;;;;;;19.77;100.00;101573.69;2615415;36;20034;-59
2022/10/30 15:33:03;;;;;;;24.08;11.52;;;;;;;19.56;100.00;101569.69;2633461;36;20026;-63
2022/10/30 15:35:31;;;;;;;22.73;10.52;;;;;;;19.47;100.00;101580.88;2615501;31;20023;-59
2022/10/30 15:38:07;;;;;;;25.35;10.70;;;;;;;19.51;100.00;101576.75;2616293;31;20041;-59
2022/10/30 15:40:38;;;;;;;18.67;10.73;;;;;;;19.49;100.00;101590.56;2612901;36;20042;-59
2022/10/30 15:43:12;;;;;;;20.60;12.30;;;;;;;19.53;100.00;101591.06;2615064;36;20027;-63
2022/10/30 15:45:42;;;;;;;19.65;9.85;;;;;;;19.40;100.00;101606.16;2634207;36;20029;-59
2022/10/30 15:48:23;;;;;;;17.92;10.60;;;;;;;19.47;100.00;101606.28;2615258;36;20038;-58
2022/10/30 15:51:00;;;;;;;23.38;11.25;;;;;;;19.35;100.00;101610.44;2616884;36;20037;-60
2022/10/30 15:53:37;;;;;;;24.25;11.73;;;;;;;19.18;100.00;101621.38;2616342;36;20543;-58
2022/10/30 15:56:08;;;;;;;23.10;12.57;;;;;;;19.04;100.00;101624.81;2633958;36;20057;-55
2022/10/30 15:58:40;;;;;;;23.83;12.18;;;;;;;19.00;100.00;101635.22;2617134;31;20041;-59
2022/10/30 16:01:26;;;;;;;20.73;11.52;;;;;;;18.98;100.00;101634.56;2616415;36;20038;-61
2022/10/30 16:03:57;;;;;;;24.23;12.25;;;;;;;18.77;100.00;101631.47;2614684;36;20034;-58
2022/10/30 16:06:31;;;;;;;20.80;12.60;;;;;;;18.70;100.00;101650.41;2613814;36;20030;-62
2022/10/30 16:11:45;;;;;;;30.35;14.13;;;;;;;18.49;100.00;101646.31;2615751;46;20085;-59
2022/10/30 16:14:18;;;;;;;29.40;14.00;;;;;;;18.68;100.00;101649.69;2615937;36;20431;-58
2022/10/30 16:16:47;;;;;;;24.95;13.43;;;;;;;18.67;100.00;101645.28;2614413;36;20030;-58
2022/10/30 16:19:22;;;;;;;22.25;13.65;;;;;;;18.61;100.00;101652.28;2614627;36;20034;-58
2022/10/30 16:21:52;;;;;;;51.67;23.60;;;;;;;18.56;100.00;101666.41;2615351;36;20054;-58
2022/10/30 16:27:07;;;;;;;40.08;21.33;;;;;;;18.52;100.00;101667.78;2614937;36;20565;-63
2022/10/30 16:29:37;;;;;;;32.25;16.10;;;;;;;18.32;100.00;101680.84;2616319;31;20030;-63
2022/10/30 16:32:05;;;;;;;;;;;;;;;18.48;100.00;101669.13;2616085;36;20026;-60
2022/10/30 16:34:35;;;;;;;59.95;29.83;;;;;;;18.36;100.00;101674.03;2616706;36;19938;-58
2022/10/30 16:39:38;;;;;;;33.25;19.77;;;;;;;18.37;100.00;101674.88;2613045;54;20045;-59
2022/10/30 16:42:20;;;;;;;36.90;20.42;;;;;;;18.39;100.00;101681.88;2616531;36;20026;-58
2022/10/30 16:44:49;;;;;;;35.63;16.15;;;;;;;18.28;100.00;101673.19;2616751;36;20022;-58
2022/10/30 16:47:26;;;;;;;25.17;13.38;;;;;;;18.31;100.00;101683.75;2616549;36;20034;-58
2022/10/30 16:49:58;;;;;;;23.05;12.40;;;;;;;18.12;100.00;101690.31;2616559;36;20034;-62
2022/10/30 16:52:29;;;;;;;20.50;12.43;;;;;;;18.26;100.00;101691.56;2616818;36;21007;-58
2022/10/30 17:00:21;;;;;;;23.55;11.20;;;;;;;18.24;100.00;101710.81;2615826;36;20037;-59
2022/10/30 17:05:24;;;;;;;17.52;10.02;;;;;;;18.23;100.00;101710.94;2613248;54;20038;-60
2022/10/30 17:13:35;;;;;;;23.75;10.02;;;;;;;17.98;100.00;101732.69;2615349;36;20038;-61
2022/10/30 17:21:11;;;;;;;13.27;7.88;;;;;;;17.94;100.00;101742.19;2614253;39;20416;-60
2022/10/30 17:28:49;;;;;;;14.50;8.25;;;;;;;17.73;100.00;101735.25;2613435;54;20035;-57
2022/10/30 17:31:29;;;;;;;14.38;6.95;;;;;;;17.72;100.00;101749.88;2616346;31;20553;-60
2022/10/30 17:34:16;;;;;;;12.48;7.70;;;;;;;17.59;100.00;101739.41;2617237;32;20031;-58
2022/10/30 17:36:48;;;;;;;16.45;5.93;;;;;;;17.54;100.00;101743.66;2616001;36;20034;-60
2022/10/30 17:39:17;;;;;;;11.13;5.20;;;;;;;17.49;100.00;101742.25;2617106;36;20496;-63
2022/10/30 17:41:45;;;;;;;13.07;5.78;;;;;;;17.45;100.00;101735.41;2616698;36;20083;-58
2022/10/30 17:44:20;;;;;;;8.57;5.03;;;;;;;17.45;100.00;101732.69;2616414;31;20041;-62
2022/10/30 17:46:50;;;;;;;16.23;5.78;;;;;;;17.46;100.00;101738.97;2615887;36;20027;-63
2022/10/30 17:49:26;;;;;;;16.45;5.03;;;;;;;17.39;100.00;101732.47;2616389;36;20030;-58
2022/10/30 17:57:17;;;;;;;9.25;3.97;;;;;;;17.39;100.00;101749.66;2615549;36;20454;-58
2022/10/30 17:59:46;;;;;;;9.10;4.38;;;;;;;17.29;100.00;101738.03;2616856;36;20023;-58
2022/10/30 18:02:16;;;;;;;9.43;3.35;;;;;;;17.24;100.00;101734.91;2616772;36;20041;-62
2022/10/30 18:04:45;;;;;;;6.82;3.70;;;;;;;17.21;100.00;101725.22;2616934;36;20029;-58
2022/10/30 18:07:14;;;;;;;9.35;4.30;;;;;;;17.19;100.00;101745.44;2617111;36;20026;-60
2022/10/30 18:09:42;;;;;;;10.70;4.20;;;;;;;17.06;100.00;101754.84;2616385;36;20042;-59
2022/10/30 18:12:18;;;;;;;10.18;4.47;;;;;;;17.07;100.00;101761.16;2616946;36;20030;-56
2022/10/30 18:14:47;;;;;;;10.23;4.75;;;;;;;17.09;100.00;101764.56;2617775;36;20439;-57
2022/10/30 18:22:07;;;;;;;11.98;5.22;;;;;;;16.90;100.00;101782.78;2614945;36;20041;-59
2022/10/30 18:24:36;;;;;;;15.57;6.20;;;;;;;16.78;100.00;101795.69;2613429;36;20528;-60
2022/10/30 18:27:04;;;;;;;12.33;5.53;;;;;;;16.78;100.00;101790.25;2614570;31;20439;-59
2022/10/30 18:42:38;;;;;;;22.90;7.32;;;;;;;16.64;100.00;101826.13;2613010;36;20030;-59
2022/10/30 18:45:21;;;;;;;15.88;7.50;;;;;;;16.66;100.00;101832.25;2614048;36;20432;-59
2022/10/30 18:47:50;;;;;;;14.75;6.35;;;;;;;16.52;100.00;101833.63;2616412;36;20061;-64
2022/10/30 18:50:19;;;;;;;15.80;7.25;;;;;;;16.37;100.00;101836.00;2614405;31;20022;-59
2022/10/30 18:52:48;;;;;;;13.10;7.35;;;;;;;16.30;100.00;101840.31;2615015;36;20035;-58
2022/10/30 18:55:20;;;;;;;14.35;7.78;;;;;;;16.32;100.00;101849.16;2614535;36;20574;-62
2022/10/30 18:57:53;;;;;;;13.98;8.30;;;;;;;16.23;100.00;101860.94;2615444;36;20057;-60
2022/10/30 19:05:34;;;;;;;16.40;7.35;;;;;;;16.19;100.00;101859.50;2613222;54;20039;31
2022/10/30 19:08:04;;;;;;;16.83;7.93;;;;;;;16.24;100.00;101851.78;2613797;36;20039;-57
2022/10/30 19:10:35;;;;;;;17.77;7.68;;;;;;;16.06;100.00;101858.00;2614485;36;20030;-59
2022/10/30 19:13:13;;;;;;;16.05;7.40;;;;;;;16.13;100.00;101858.25;2615154;36;20071;-56
2022/10/30 19:23:33;;;;;;;12.32;7.05;;;;;;;15.99;100.00;101859.59;2614496;36;20038;-56
2022/10/30 19:26:01;;;;;;;13.67;7.60;;;;;;;15.99;100.00;101854.16;2612138;36;20023;-57
2022/10/30 19:28:37;;;;;;;10.50;6.30;;;;;;;15.89;100.00;101850.59;2613664;36;20287;-57
2022/10/30 19:31:05;;;;;;;13.75;7.13;;;;;;;15.87;100.00;101849.88;2613129;36;20033;-56
2022/10/30 19:33:34;;;;;;;16.13;7.05;;;;;;;15.84;100.00;101861.03;2613873;31;20439;-58
2022/10/30 19:43:34;;;;;;;13.27;7.80;;;;;;;15.88;100.00;101867.88;2613311;54;20027;-53
2022/10/30 19:46:02;;;;;;;18.27;8.07;;;;;;;15.85;100.00;101876.34;2615749;36;20042;-57
2022/10/30 19:48:49;;;;;;;20.13;8.13;;;;;;;15.72;100.00;101873.88;2615639;36;20022;-56
2022/10/30 19:51:20;;;;;;;11.18;7.47;;;;;;;15.69;100.00;101874.19;2616359;36;20034;-57
2022/10/30 19:53:52;;;;;;;13.07;7.45;;;;;;;15.68;100.00;101872.44;2615100;36;20031;-57